Time;durP1;ratioP1;P1;durP2;ratioP2;P2;SDS_P1;SDS_P2;PMS_P1;PMS_P2;Temp;Humidity;BMP_temperature;BMP_pressure;BME280_temperature;BME280_humidity;BME280_pressure;Samples;Min_cycle;Max_cycle;Signal;HPM_P1;HPM_P2
2022/07/05 03:48:23;;;;;;;1.70;1.50;;;;;;;24.43;59.48;100233.66;6078523;28;20114;-87
2022/07/05 03:51:43;;;;;;;2.05;1.95;;;;;;;24.58;59.01;100246.59;5326792;33;34401;-87
2022/07/05 03:54:46;;;;;;;1.75;1.65;;;;;;;24.68;58.70;100256.78;5325863;33;34778;-87
2022/07/05 03:57:49;;;;;;;1.70;1.60;;;;;;;24.70;57.00;100259.28;5325857;33;33744;-87
2022/07/05 04:00:52;;;;;;;2.90;1.67;;;;;;;24.70;56.65;100260.09;5326440;33;33795;-87
2022/07/05 04:03:55;;;;;;;1.70;1.60;;;;;;;24.73;56.52;100264.22;5325879;33;33992;-87
2022/07/05 04:06:58;;;;;;;1.65;1.55;;;;;;;24.75;56.49;100262.84;5312052;33;33047;-87
2022/07/05 04:10:02;;;;;;;2.35;2.20;;;;;;;24.79;56.16;100258.44;5325432;33;34724;-86
2022/07/05 04:13:05;;;;;;;1.70;1.60;;;;;;;24.82;55.70;100259.81;5324182;33;34065;-86
2022/07/05 04:16:09;;;;;;;1.85;1.50;;;;;;;24.88;55.83;100256.78;5324807;33;33910;-87
2022/07/05 04:19:12;;;;;;;1.60;1.48;;;;;;;24.85;55.57;100256.50;5325015;33;33748;-87
2022/07/05 04:22:15;;;;;;;2.22;1.60;;;;;;;24.84;56.10;100263.13;5325891;33;35213;-87
2022/07/05 04:25:18;;;;;;;1.98;1.80;;;;;;;24.78;56.43;100259.56;5311447;33;32940;-87
2022/07/05 04:28:22;;;;;;;2.15;1.90;;;;;;;24.79;56.74;100263.94;5325039;33;33916;-86
2022/07/05 04:31:26;;;;;;;4.35;1.60;;;;;;;24.82;57.00;100257.06;5325766;33;33963;-87
2022/07/05 04:34:29;;;;;;;2.15;1.83;;;;;;;24.72;57.59;100260.66;5325199;33;34395;-86
2022/07/05 04:37:32;;;;;;;4.87;2.08;;;;;;;24.77;57.88;100255.13;5324561;33;33740;-87
2022/07/05 04:40:35;;;;;;;1.73;1.62;;;;;;;24.91;57.29;100251.84;5325345;33;33673;-86
2022/07/05 04:43:38;;;;;;;1.87;1.77;;;;;;;24.91;57.13;100249.91;5324910;33;33892;-86
2022/07/05 04:46:41;;;;;;;3.70;1.73;;;;;;;24.93;56.90;100255.97;5324767;33;34657;-86
2022/07/05 04:49:44;;;;;;;1.67;1.58;;;;;;;24.94;56.26;100252.09;5323912;33;35400;-86
2022/07/05 04:52:48;;;;;;;2.62;1.70;;;;;;;24.95;56.08;100251.03;5354798;27;35231;-89
2022/07/05 04:55:50;;;;;;;3.60;1.70;;;;;;;24.96;56.13;100249.09;5295327;33;32667;-89
2022/07/05 04:58:53;;;;;;;1.87;1.65;;;;;;;25.02;55.91;100243.28;5289116;33;34307;-89
2022/07/05 05:01:56;;;;;;;2.28;2.00;;;;;;;25.06;55.68;100236.09;5289330;33;35009;-86
2022/07/05 05:04:59;;;;;;;1.83;1.73;;;;;;;25.05;55.89;100239.97;5288983;33;33979;-86
2022/07/05 05:08:02;;;;;;;1.80;1.70;;;;;;;25.13;55.87;100249.63;5288554;33;34402;-86
2022/07/05 05:11:05;;;;;;;1.90;1.80;;;;;;;25.11;55.73;100244.37;5290358;33;34012;-85
2022/07/05 05:14:07;;;;;;;2.05;1.90;;;;;;;25.15;55.40;100257.63;5288703;33;33906;-84
2022/07/05 05:17:10;;;;;;;1.80;1.60;;;;;;;25.16;55.30;100251.03;5288208;33;34360;-85
2022/07/05 05:20:17;;;;;;;1.98;1.87;;;;;;;25.07;55.68;100243.28;5288209;33;33538;-85
2022/07/05 05:23:19;;;;;;;1.60;1.50;;;;;;;25.14;55.87;100233.94;5305542;33;33876;-85
2022/07/05 05:26:22;;;;;;;2.20;1.65;;;;;;;25.12;56.06;100242.44;5305824;33;34725;-85
2022/07/05 05:29:25;;;;;;;2.28;1.60;;;;;;;25.17;56.34;100241.66;5305609;33;34118;-86
2022/07/05 05:32:27;;;;;;;1.80;1.70;;;;;;;25.22;56.04;100236.13;5305813;33;34036;-85
2022/07/05 05:35:30;;;;;;;2.47;1.65;;;;;;;25.34;55.86;100237.47;5292592;33;32378;-85
2022/07/05 05:38:33;;;;;;;2.17;1.77;;;;;;;25.35;55.98;100230.03;5305660;33;33913;-85
2022/07/05 05:41:36;;;;;;;2.97;1.73;;;;;;;25.42;55.92;100236.09;5305919;33;34062;-86
2022/07/05 05:44:39;;;;;;;1.90;1.80;;;;;;;25.47;55.78;100236.06;5290276;33;35458;-85
2022/07/05 05:47:51;;;;;;;3.85;2.12;;;;;;;25.57;55.51;100243.47;5290415;33;34061;-85
2022/07/05 05:50:54;;;;;;;8.65;1.83;;;;;;;25.72;55.17;100253.63;5290360;33;34291;-85
2022/07/05 05:53:57;;;;;;;2.65;1.73;;;;;;;25.90;54.58;100252.19;5289280;33;34357;-85
2022/07/05 05:56:59;;;;;;;2.03;1.48;;;;;;;26.14;53.96;100253.16;5305795;33;34562;-85
2022/07/05 06:00:05;;;;;;;2.12;1.83;;;;;;;26.42;53.16;100259.91;5306150;33;34843;-85
2022/07/05 06:03:12;;;;;;;1.85;1.65;;;;;;;26.62;52.90;100261.75;5306353;33;33966;-85
2022/07/05 06:06:15;;;;;;;2.08;1.40;;;;;;;26.64;51.66;100259.50;5306899;33;35248;-85
2022/07/05 06:09:18;;;;;;;2.35;2.12;;;;;;;26.73;51.75;100261.66;5294261;33;34338;-85
2022/07/05 06:12:21;;;;;;;1.77;1.67;;;;;;;26.73;50.67;100269.94;5307960;33;35029;-85
2022/07/05 06:15:24;;;;;;;2.40;1.87;;;;;;;26.81;49.71;100270.13;5307484;33;34586;-85
2022/07/05 06:18:27;;;;;;;2.87;1.45;;;;;;;26.79;49.84;100275.13;5306990;33;34664;-85
2022/07/05 06:21:30;;;;;;;1.65;1.55;;;;;;;26.62;49.54;100283.00;5288790;33;33373;-85
2022/07/05 06:24:32;;;;;;;1.92;1.83;;;;;;;26.52;49.26;100285.81;5300844;33;33549;-85
2022/07/05 06:27:40;;;;;;;3.50;1.60;;;;;;;26.33;50.05;100280.13;5312149;33;34330;-85
2022/07/05 06:30:43;;;;;;;1.80;1.50;;;;;;;26.27;50.48;100284.84;5310501;33;34316;-85
2022/07/05 06:33:45;;;;;;;1.60;1.50;;;;;;;26.17;51.12;100282.13;5312039;33;33794;-85
2022/07/05 06:36:48;;;;;;;1.62;1.48;;;;;;;26.16;51.26;100275.78;5311466;33;33847;-85
2022/07/05 06:39:51;;;;;;;2.08;1.67;;;;;;;26.12;50.78;100280.25;5318319;33;33756;-84
2022/07/05 06:42:56;;;;;;;1.70;1.37;;;;;;;26.10;50.90;100265.91;5311652;33;34453;-84
2022/07/05 06:45:59;;;;;;;1.52;1.40;;;;;;;25.94;51.21;100269.81;5308279;33;33918;-85
2022/07/05 06:49:02;;;;;;;1.92;1.45;;;;;;;25.80;51.03;100261.31;5306987;33;34503;-85
2022/07/05 06:52:05;;;;;;;1.50;1.40;;;;;;;25.87;51.36;100256.34;5318739;33;33900;-84
2022/07/05 06:55:08;;;;;;;1.87;1.20;;;;;;;25.63;51.58;100267.16;5324828;33;34332;-84
2022/07/05 06:58:14;;;;;;;1.50;1.30;;;;;;;25.43;51.37;100268.03;5307301;33;33922;-84
2022/07/05 07:01:17;;;;;;;1.20;1.10;;;;;;;25.60;51.14;100272.44;5307845;33;33779;-88
2022/07/05 07:04:21;;;;;;;3.92;1.20;;;;;;;25.66;50.86;100265.78;5307569;33;34814;-89
2022/07/05 07:10:53;;;;;;;1.23;1.12;;;;;;;26.39;48.80;100257.72;5307333;33;34111;-85
2022/07/05 07:13:56;;;;;;;1.27;1.17;;;;;;;26.48;48.70;100259.88;5306481;33;34251;-85
2022/07/05 07:16:59;;;;;;;1.52;1.20;;;;;;;26.42;48.77;100256.31;5307292;33;34423;-85
2022/07/05 07:20:02;;;;;;;1.30;1.20;;;;;;;26.49;48.02;100259.56;5307371;33;33458;-86
2022/07/05 07:23:05;;;;;;;1.62;1.20;;;;;;;26.59;47.89;100255.94;5307263;33;34805;-85
2022/07/05 07:26:08;;;;;;;1.60;1.17;;;;;;;26.94;46.91;100254.00;5307363;33;33837;-85
2022/07/05 07:29:10;;;;;;;4.72;1.10;;;;;;;27.24;46.69;100250.19;5307734;33;34631;-86
2022/07/05 07:32:13;;;;;;;1.52;1.42;;;;;;;27.63;45.65;100252.78;5307291;33;34044;-86
2022/07/05 07:35:16;;;;;;;4.95;1.20;;;;;;;28.06;44.79;100250.06;5294509;33;33022;-86
2022/07/05 07:38:19;;;;;;;1.10;1.00;;;;;;;28.11;44.62;100258.28;5307544;33;34793;-85
2022/07/05 07:41:21;;;;;;;1.60;1.10;;;;;;;27.96;44.45;100252.94;5307455;33;34209;-85
2022/07/05 07:44:24;;;;;;;0.90;0.90;;;;;;;27.82;44.78;100258.41;5307369;33;34655;-85
2022/07/05 07:47:27;;;;;;;1.85;1.10;;;;;;;27.82;44.93;100250.09;5307028;33;33916;-85
2022/07/05 07:50:30;;;;;;;1.48;1.20;;;;;;;28.08;44.74;100246.97;5307337;33;33643;-85
2022/07/05 07:53:33;;;;;;;2.12;1.25;;;;;;;27.88;45.35;100245.31;5307353;33;34289;-85
2022/07/05 07:56:36;;;;;;;1.12;0.90;;;;;;;27.57;46.46;100245.66;5308881;33;35613;-85
2022/07/05 07:59:39;;;;;;;3.70;1.30;;;;;;;27.53;47.03;100241.84;5307169;33;33932;-85
2022/07/05 08:02:42;;;;;;;1.40;1.23;;;;;;;27.60;47.12;100239.53;5293600;33;33377;-85
2022/07/05 08:05:44;;;;;;;1.92;1.17;;;;;;;27.59;47.30;100237.91;5308516;33;34111;-84
2022/07/05 08:08:47;;;;;;;0.90;0.90;;;;;;;27.43;47.74;100234.47;5295756;33;33009;-85
2022/07/05 08:11:50;;;;;;;2.15;1.30;;;;;;;27.59;47.87;100243.44;5307800;33;35387;-84
2022/07/05 08:14:52;;;;;;;2.70;1.80;;;;;;;27.65;47.59;100239.47;5309243;33;34305;-85
2022/07/05 08:21:31;;;;;;;1.80;1.48;;;;;;;27.64;47.56;100234.22;5296154;33;32245;-84
2022/07/05 08:24:36;;;;;;;1.37;1.20;;;;;;;27.75;47.69;100233.00;5293899;33;32240;-84
2022/07/05 08:27:38;;;;;;;1.50;1.10;;;;;;;27.67;47.95;100236.41;5306976;33;33986;-85
2022/07/05 08:30:41;;;;;;;2.28;1.20;;;;;;;27.69;47.83;100240.53;5306977;33;33875;-84
2022/07/05 08:33:44;;;;;;;1.27;1.23;;;;;;;27.89;47.85;100235.91;5303854;33;34559;-85
2022/07/05 08:36:47;;;;;;;2.42;1.33;;;;;;;27.78;47.66;100238.78;5316328;33;33727;-84
2022/07/05 08:39:50;;;;;;;1.27;1.17;;;;;;;27.79;47.60;100237.69;5293412;33;33406;-84
2022/07/05 08:42:56;;;;;;;1.60;1.27;;;;;;;28.01;47.14;100239.84;5321434;33;34154;-84
2022/07/05 08:45:59;;;;;;;1.40;1.30;;;;;;;28.02;46.81;100244.28;5332528;33;34325;-87
2022/07/05 08:49:04;;;;;;;1.77;1.50;;;;;;;27.98;46.56;100246.00;5333806;33;35312;-89
2022/07/05 08:52:15;;;;;;;1.45;1.15;;;;;;;28.16;46.50;100251.84;5312231;33;34597;-85
2022/07/05 08:55:18;;;;;;;1.48;1.20;;;;;;;28.17;46.13;100254.31;5306610;33;34582;-85
2022/07/05 08:58:20;;;;;;;2.95;1.52;;;;;;;28.52;45.63;100256.88;5292164;33;32298;-85
2022/07/05 09:01:24;;;;;;;3.05;1.35;;;;;;;28.67;45.55;100251.94;5306811;33;34758;-85
2022/07/05 09:04:32;;;;;;;1.35;1.25;;;;;;;28.79;44.58;100250.66;5306703;33;34356;-84
2022/07/05 09:07:37;;;;;;;1.33;1.20;;;;;;;28.75;44.71;100241.28;5307150;33;34342;-84
2022/07/05 09:10:42;;;;;;;1.37;0.90;;;;;;;28.78;45.03;100240.66;5307459;33;34476;-84
2022/07/05 09:13:51;;;;;;;1.10;0.88;;;;;;;28.42;44.85;100246.78;5293667;33;33032;-84
2022/07/05 09:17:14;;;;;;;2.45;1.08;;;;;;;28.73;44.45;100247.13;5306703;33;34322;-84
2022/07/05 09:20:18;;;;;;;1.73;1.25;;;;;;;28.57;45.27;100242.97;5306031;33;34764;-83
2022/07/05 09:23:22;;;;;;;1.50;1.37;;;;;;;28.50;45.60;100251.66;5290434;33;32295;-83
2022/07/05 09:26:38;;;;;;;;;;;;;;;28.43;45.70;100251.19;5306725;33;33915;-83
2022/07/05 09:29:55;;;;;;;4.87;1.58;;;;;;;28.46;46.51;100262.53;5305823;33;34824;-84
2022/07/05 09:33:14;;;;;;;1.80;1.20;;;;;;;28.66;46.90;100264.13;5301496;33;33429;-84
2022/07/05 09:36:16;;;;;;;1.50;1.40;;;;;;;28.42;48.07;100272.53;5293266;33;32341;-84
2022/07/05 09:39:28;;;;;;;1.48;1.37;;;;;;;28.26;48.37;100263.59;5311123;33;33995;-84
2022/07/05 09:42:31;;;;;;;1.85;1.70;;;;;;;28.06;49.77;100261.13;5312103;33;34031;-84
2022/07/05 09:45:34;;;;;;;1.40;1.30;;;;;;;27.53;50.44;100247.37;5311692;33;33774;-84
2022/07/05 09:48:37;;;;;;;2.83;1.98;;;;;;;27.46;50.69;100257.94;5312138;33;34028;-84
2022/07/05 09:51:48;;;;;;;2.67;1.30;;;;;;;26.90;52.25;100256.53;5311295;33;34033;-84
2022/07/05 09:55:11;;;;;;;2.80;1.42;;;;;;;27.05;52.50;100267.44;5309994;33;34907;-86
2022/07/05 09:58:14;;;;;;;3.10;1.80;;;;;;;26.83;53.66;100264.34;5309886;33;34070;-85
2022/07/05 10:01:27;;;;;;;1.95;1.62;;;;;;;26.68;54.39;100268.06;5310421;33;35398;-85
2022/07/05 10:04:30;;;;;;;1.83;1.50;;;;;;;26.82;54.07;100268.19;5309227;33;33628;-85
2022/07/05 10:07:34;;;;;;;2.67;1.30;;;;;;;26.73;54.84;100284.56;5313080;33;34149;-84
2022/07/05 10:10:38;;;;;;;1.60;1.50;;;;;;;26.27;54.82;100306.09;5310634;33;33541;-87
2022/07/05 10:13:42;;;;;;;2.50;1.75;;;;;;;25.87;56.00;100327.25;5314844;33;34400;-84
2022/07/05 10:16:47;;;;;;;1.50;1.40;;;;;;;25.38;57.81;100342.47;5312849;33;34097;-84
2022/07/05 10:19:51;;;;;;;1.62;1.52;;;;;;;25.24;58.85;100352.41;5313839;33;34752;-85
2022/07/05 10:22:56;;;;;;;3.15;1.80;;;;;;;25.01;60.10;100354.59;5310938;33;35599;-85
2022/07/05 10:26:07;;;;;;;2.10;1.90;;;;;;;24.65;61.58;100332.47;5313843;33;33934;-85
2022/07/05 10:29:11;;;;;;;2.95;2.12;;;;;;;24.12;65.47;100290.50;5297342;33;32564;-84
2022/07/05 10:32:15;;;;;;;3.65;2.10;;;;;;;23.71;70.56;100282.06;5310292;33;34138;-83
2022/07/05 10:35:18;;;;;;;3.65;2.60;;;;;;;22.95;76.64;100312.56;5292310;33;33200;-85
2022/07/05 10:38:26;;;;;;;2.40;2.12;;;;;;;22.15;82.97;100319.66;5314837;33;33767;-84
2022/07/05 10:41:31;;;;;;;5.30;2.72;;;;;;;21.73;88.72;100320.19;5311952;33;34782;-82
2022/07/05 10:44:47;;;;;;;4.05;2.65;;;;;;;21.52;91.98;100338.25;5295940;33;33337;-82
2022/07/05 10:48:09;;;;;;;3.05;2.75;;;;;;;21.09;99.78;100342.50;5319573;27;34231;-84
2022/07/05 10:51:13;;;;;;;2.60;2.40;;;;;;;20.91;100.00;100354.47;5294516;33;32395;-83
2022/07/05 10:54:16;;;;;;;3.75;2.70;;;;;;;20.79;100.00;100349.06;5306824;33;34697;-87
2022/07/05 10:57:23;;;;;;;2.78;2.47;;;;;;;20.79;100.00;100360.00;5306899;33;34095;-88
2022/07/05 11:00:26;;;;;;;4.65;2.90;;;;;;;20.82;100.00;100364.16;5294065;33;32660;-83
2022/07/05 11:03:37;;;;;;;2.65;2.28;;;;;;;20.90;100.00;100377.47;5293988;33;32170;-83
2022/07/05 11:06:41;;;;;;;3.37;2.28;;;;;;;20.96;97.61;100381.94;5295670;33;31500;-84
2022/07/05 11:10:01;;;;;;;2.30;2.10;;;;;;;21.02;98.32;100380.13;5306791;33;34097;-84
2022/07/05 11:13:36;;;;;;;2.50;2.30;;;;;;;20.95;96.24;100371.25;5312169;33;34003;-84
2022/07/05 11:16:38;;;;;;;2.12;1.92;;;;;;;20.96;93.28;100375.66;5318417;33;34320;-85
2022/07/05 11:20:27;;;;;;;1.77;1.65;;;;;;;20.93;93.24;100385.19;5302499;33;32401;-85
2022/07/05 11:23:30;;;;;;;1.80;1.70;;;;;;;20.91;88.51;100394.72;5310150;33;34103;-84
2022/07/05 11:26:34;;;;;;;1.80;1.40;;;;;;;20.84;90.06;100401.16;5307343;33;34622;-84
2022/07/05 11:29:39;;;;;;;1.48;1.37;;;;;;;20.85;89.27;100407.47;5306862;33;35383;-84
2022/07/05 11:32:42;;;;;;;1.40;1.30;;;;;;;20.89;90.24;100407.81;5293645;33;33247;-83
2022/07/05 11:35:45;;;;;;;1.95;1.58;;;;;;;20.91;88.85;100394.72;5321669;33;33650;-83
2022/07/05 11:39:06;;;;;;;2.47;1.67;;;;;;;20.96;89.73;100387.41;5315365;33;34147;-83
2022/07/05 11:42:22;;;;;;;1.75;1.45;;;;;;;20.99;89.35;100388.84;5294182;33;32346;-88
2022/07/05 11:45:25;;;;;;;3.78;1.85;;;;;;;20.94;91.53;100373.19;5306269;33;34121;-82
2022/07/05 11:48:29;;;;;;;1.70;1.60;;;;;;;20.78;91.72;100382.16;5318495;33;34750;-82
2022/07/05 11:51:32;;;;;;;1.95;1.83;;;;;;;20.33;96.79;100364.59;5315389;33;34166;-81
2022/07/05 11:54:34;;;;;;;2.28;2.08;;;;;;;19.97;100.00;100364.91;5305319;33;34426;-82
2022/07/05 11:57:49;;;;;;;3.05;2.17;;;;;;;19.74;100.00;100371.22;5309012;33;34682;-80
2022/07/05 12:00:58;;;;;;;2.58;2.37;;;;;;;19.69;100.00;100356.41;5301134;33;32201;-81
2022/07/05 12:04:01;;;;;;;2.47;2.20;;;;;;;19.63;100.00;100351.84;5307057;33;33789;-80
2022/07/05 12:07:04;;;;;;;2.37;2.17;;;;;;;19.61;100.00;100348.53;5312840;33;34070;-83
2022/07/05 12:13:50;;;;;;;2.40;2.20;;;;;;;19.70;100.00;100338.91;5313476;33;34006;-83
2022/07/05 12:17:13;;;;;;;2.60;2.40;;;;;;;19.86;100.00;100342.84;5316630;33;34079;-81
2022/07/05 12:20:25;;;;;;;2.53;2.33;;;;;;;19.93;100.00;100345.44;5320562;33;34791;-82
2022/07/05 12:23:28;;;;;;;4.75;2.55;;;;;;;20.04;100.00;100335.56;5308835;33;34124;-83
2022/07/05 12:26:30;;;;;;;2.37;2.17;;;;;;;20.18;100.00;100328.72;5325660;33;33846;-82
2022/07/05 12:29:33;;;;;;;3.45;2.50;;;;;;;20.37;100.00;100319.28;5320296;33;34637;-82
2022/07/05 12:32:58;;;;;;;3.00;2.35;;;;;;;20.63;100.00;100302.56;5314687;33;34452;-82
2022/07/05 12:36:01;;;;;;;2.33;2.12;;;;;;;20.63;100.00;100316.22;5299542;33;32613;-86
2022/07/05 12:39:03;;;;;;;2.53;2.33;;;;;;;20.57;100.00;100318.03;5303692;33;33745;-82
2022/07/05 12:42:06;;;;;;;2.85;2.10;;;;;;;20.63;100.00;100330.72;5309382;33;33557;-82
2022/07/05 12:45:13;;;;;;;3.17;2.05;;;;;;;20.74;100.00;100335.31;5316825;33;33987;-82
2022/07/05 12:48:16;;;;;;;2.40;2.20;;;;;;;20.83;99.04;100324.81;5307049;33;34475;-82
2022/07/05 12:51:33;;;;;;;2.35;2.08;;;;;;;20.89;100.00;100329.28;5320156;33;33659;-83
2022/07/05 12:58:02;;;;;;;1.90;1.80;;;;;;;20.92;100.00;100309.62;5316248;33;33960;-82
2022/07/05 13:01:21;;;;;;;2.35;1.87;;;;;;;20.95;100.00;100311.06;5319629;33;34406;-84
2022/07/05 13:04:24;;;;;;;2.37;2.20;;;;;;;21.01;97.09;100315.53;5314885;33;34173;-83
2022/07/05 13:07:27;;;;;;;1.83;1.73;;;;;;;21.14;98.32;100309.69;5324892;33;34549;-84
2022/07/05 13:10:46;;;;;;;3.10;1.95;;;;;;;21.26;96.80;100298.66;5316962;33;217824;-84
2022/07/05 13:13:49;;;;;;;2.60;2.05;;;;;;;21.25;95.47;100292.38;5311925;33;34435;-84
2022/07/05 13:16:51;;;;;;;2.15;1.90;;;;;;;21.24;93.98;100284.41;5320978;33;34331;-83
2022/07/05 13:19:54;;;;;;;1.83;1.73;;;;;;;21.24;95.52;100276.19;5329230;33;34340;-83
2022/07/05 13:22:57;;;;;;;1.87;1.62;;;;;;;21.27;92.63;100276.53;5315477;33;35264;-83
2022/07/05 13:26:00;;;;;;;2.03;1.77;;;;;;;21.42;93.51;100264.16;5320347;33;35183;-83
2022/07/05 13:29:03;;;;;;;2.10;1.90;;;;;;;21.65;92.88;100260.38;5311098;33;34846;-84
2022/07/05 13:32:07;;;;;;;2.05;1.87;;;;;;;21.83;90.49;100257.31;5300612;33;32361;-83
2022/07/05 13:35:11;;;;;;;3.85;1.77;;;;;;;21.89;89.86;100259.03;5322140;33;34253;-83
2022/07/05 13:38:14;;;;;;;2.30;1.80;;;;;;;21.96;89.52;100250.59;5320572;33;34487;-83
2022/07/05 13:41:17;;;;;;;1.77;1.58;;;;;;;21.96;89.07;100256.91;5311752;33;34008;-82
2022/07/05 13:44:21;;;;;;;2.00;1.75;;;;;;;21.89;88.37;100263.69;5325386;33;33776;-83
2022/07/05 13:47:23;;;;;;;1.70;1.60;;;;;;;21.87;89.75;100268.59;5300673;33;33479;-83
2022/07/05 13:50:32;;;;;;;1.92;1.77;;;;;;;21.70;88.65;100264.00;5310456;33;33342;-83
2022/07/05 13:53:36;;;;;;;2.05;1.60;;;;;;;21.64;91.23;100269.66;5302406;33;33396;-87
2022/07/05 13:56:40;;;;;;;3.25;1.90;;;;;;;21.76;89.51;100261.31;5312414;33;35395;-87
2022/07/05 13:59:42;;;;;;;2.50;1.80;;;;;;;21.85;92.37;100260.63;5311526;33;33707;-87
2022/07/05 14:02:46;;;;;;;2.33;2.03;;;;;;;21.93;87.89;100251.94;5310413;33;33747;-84
2022/07/05 14:05:49;;;;;;;2.20;1.85;;;;;;;21.90;87.17;100240.66;5311570;33;35240;-83
2022/07/05 14:08:52;;;;;;;1.80;1.70;;;;;;;22.09;89.79;100246.66;5315277;33;34846;-83
2022/07/05 14:11:55;;;;;;;3.67;2.22;;;;;;;22.21;89.27;100254.75;5312205;33;34457;-83
2022/07/05 14:14:57;;;;;;;1.83;1.73;;;;;;;22.24;86.73;100252.31;5311008;33;34274;-83
2022/07/05 14:18:01;;;;;;;2.45;2.25;;;;;;;22.49;86.61;100237.19;5301395;33;32110;-83
2022/07/05 14:21:05;;;;;;;2.35;2.15;;;;;;;22.78;82.68;100230.31;5314962;33;34369;-83
2022/07/05 14:24:08;;;;;;;2.12;2.03;;;;;;;23.12;81.17;100229.22;5317046;33;33972;-83
2022/07/05 14:27:10;;;;;;;2.55;1.70;;;;;;;23.65;80.54;100224.56;5314034;33;32643;-83
2022/07/05 14:30:13;;;;;;;1.52;1.42;;;;;;;24.16;75.16;100213.75;5326892;33;34169;-83
2022/07/05 14:33:17;;;;;;;1.60;1.50;;;;;;;24.34;73.91;100220.69;5318559;33;34023;-83
2022/07/05 14:36:21;;;;;;;1.90;1.80;;;;;;;24.71;71.51;100211.34;5320290;33;33546;-83
2022/07/05 14:39:23;;;;;;;1.95;1.70;;;;;;;24.49;71.31;100215.22;5327946;33;34311;-84
2022/07/05 14:42:26;;;;;;;1.92;1.83;;;;;;;24.57;72.23;100203.66;5333800;33;33744;-84
2022/07/05 14:45:29;;;;;;;1.90;1.80;;;;;;;24.74;71.05;100199.78;5320115;33;34386;-84
2022/07/05 14:48:32;;;;;;;2.42;1.95;;;;;;;24.80;69.68;100205.00;5324216;33;33656;-84
2022/07/05 14:51:34;;;;;;;2.03;1.92;;;;;;;24.78;70.04;100195.41;5325313;33;35412;-84
2022/07/05 14:54:37;;;;;;;2.35;1.55;;;;;;;24.93;70.81;100192.63;5318320;33;35376;-85
2022/07/05 14:57:41;;;;;;;2.42;2.22;;;;;;;24.95;71.04;100190.44;5313670;33;33996;-86
2022/07/05 15:00:43;;;;;;;2.12;1.90;;;;;;;24.52;70.48;100195.41;5319419;33;34149;-86
2022/07/05 15:03:46;;;;;;;2.10;2.00;;;;;;;24.23;72.35;100191.50;5327078;33;33393;-86
2022/07/05 15:06:49;;;;;;;2.28;2.08;;;;;;;23.92;73.85;100195.00;5303930;33;32927;-86
2022/07/05 15:09:52;;;;;;;3.45;2.20;;;;;;;23.93;76.07;100187.59;5310493;33;33599;-86
2022/07/05 15:12:55;;;;;;;2.35;2.15;;;;;;;23.88;75.37;100190.31;5310179;33;34802;-86
2022/07/05 15:15:58;;;;;;;3.05;2.37;;;;;;;23.82;75.96;100196.91;5327066;33;33977;-86
2022/07/05 15:19:00;;;;;;;2.75;2.47;;;;;;;23.59;77.31;100190.72;5325015;33;34631;-86
2022/07/05 15:22:04;;;;;;;3.00;2.30;;;;;;;23.48;78.23;100192.59;5315945;33;33419;-87
2022/07/05 15:25:07;;;;;;;2.47;2.12;;;;;;;23.46;77.60;100194.00;5309198;33;34011;-87
2022/07/05 15:28:10;;;;;;;2.53;2.33;;;;;;;23.45;79.70;100190.41;5309796;33;34190;-87
2022/07/05 15:31:13;;;;;;;2.55;1.95;;;;;;;23.47;77.97;100196.47;5300972;33;32232;-87
2022/07/05 15:34:16;;;;;;;2.78;1.80;;;;;;;23.49;78.77;100190.72;5311686;33;33914;-87
2022/07/05 15:37:20;;;;;;;2.37;2.17;;;;;;;23.59;76.75;100195.41;5319495;33;33955;-87
2022/07/05 15:40:22;;;;;;;2.92;2.55;;;;;;;23.71;76.30;100193.28;5309461;33;34443;-87
2022/07/05 15:43:28;;;;;;;2.28;2.03;;;;;;;23.71;76.03;100193.28;5300449;33;33605;-87
2022/07/05 15:47:13;;;;;;;1.92;1.83;;;;;;;23.67;75.14;100187.47;5313102;33;33034;-87
2022/07/05 15:49:57;;;;;;;2.28;2.08;;;;;;;23.68;74.41;100180.88;5320592;33;34584;-87
2022/07/05 15:53:00;;;;;;;2.20;1.92;;;;;;;23.82;74.96;100180.41;5316212;33;34171;-87
2022/07/05 15:56:03;;;;;;;2.28;2.08;;;;;;;23.81;73.51;100181.50;5321455;33;33933;-87
2022/07/05 15:59:05;;;;;;;2.12;1.92;;;;;;;23.71;73.51;100172.13;5311595;33;34344;-88
2022/07/05 16:02:08;;;;;;;2.03;1.45;;;;;;;23.74;72.80;100182.56;5301869;33;32402;-90
